KBFD/BFD METAR and TAF weather

Enter ICAO airport designator
Station Type Date Time Source
KBFD METAR 2021/05/12 00:53 UTC NOAA

KBFD 120053Z AUTO 30007KT 10SM FEW043 OVC060 05/M03 A3017 RMK AO2 SLP227 T00501033


Station Type Date Time Source
KBFD Decoded METAR 2021/05/12 00:53 UTC NOAA

BRADFORD REGIONAL AIRPORT, PA, United States (KBFD) 41-48N 078-38W 647M
May 11, 2021 - 08:53 PM EDT / 2021.05.12 0053 UTC
Wind: from the WNW (300 degrees) at 8 MPH (7 KT):0
Visibility: 10 mile(s):0
Sky conditions: overcast
Temperature: 41.0 F (5.0 C)
Dew Point: 26.1 F (-3.3 C)
Relative Humidity: 54%
Pressure (altimeter): 30.17 in. Hg (1021 hPa)
ob: KBFD 120053Z AUTO 30007KT 10SM FEW043 OVC060 05/M03 A3017 RMK AO2 SLP227 T00501033
cycle: 1

Station Type Date Time Source
KBFD TAF 2021/05/11 21:27 UTC NOAA

TAF
AMD KBFD 112125Z 1121/1218 30012G20KT P6SM BKN060
FM112300 30010KT P6SM BKN035
FM120600 31010KT P6SM BKN025
FM121500 32012G20KT P6SM SCT035

Example: see airport list